Time;durP1;ratioP1;P1;durP2;ratioP2;P2;SDS_P1;SDS_P2;PMS_P1;PMS_P2;Temp;Humidity;BMP_temperature;BMP_pressure;BME280_temperature;BME280_humidity;BME280_pressure;Samples;Min_cycle;Max_cycle;Signal;HPM_P1;HPM_P2
2022/03/25 00:01:26;;;;;;;5.55;1.67;;;22.70;99.90;;;;;;5055328;28;20024;-77
2022/03/25 00:03:53;;;;;;;7.13;1.70;;;22.80;99.90;;;;;;5055285;28;20036;-77
2022/03/25 00:06:22;;;;;;;4.03;1.98;;;23.00;99.90;;;;;;5055226;28;20069;-78
2022/03/25 00:08:49;;;;;;;5.93;1.55;;;23.10;99.90;;;;;;5073930;28;20070;-77
2022/03/25 00:11:17;;;;;;;5.88;1.92;;;23.00;99.90;;;;;;5073435;28;20473;-77
2022/03/25 00:13:44;;;;;;;5.30;1.50;;;23.10;99.90;;;;;;5056641;28;20063;-77
2022/03/25 00:16:12;;;;;;;5.50;1.75;;;23.20;99.90;;;;;;5073067;28;20020;-78
2022/03/25 00:18:39;;;;;;;5.82;1.60;;;22.90;99.90;;;;;;5073108;28;20024;-76
2022/03/25 00:21:07;;;;;;;8.23;2.35;;;22.90;99.90;;;;;;5054988;28;20028;-76
2022/03/25 00:23:34;;;;;;;7.07;1.38;;;23.20;99.90;;;;;;5054835;28;20031;-76
2022/03/25 00:26:02;;;;;;;4.95;1.38;;;23.10;99.90;;;;;;5072715;28;20536;-76
2022/03/25 00:28:30;;;;;;;6.18;1.52;;;23.10;99.90;;;;;;5072882;28;20024;-76
2022/03/25 00:30:57;;;;;;;9.30;1.50;;;23.10;99.90;;;;;;5054760;28;20020;-74
2022/03/25 00:33:25;;;;;;;5.93;1.88;;;23.10;99.90;;;;;;5055119;28;20028;-74
2022/03/25 00:35:52;;;;;;;4.88;1.40;;;23.00;99.90;;;;;;5054990;28;20024;-76
2022/03/25 00:38:19;;;;;;;4.63;1.50;;;23.20;99.90;;;;;;5072636;28;20111;-78
2022/03/25 00:40:47;;;;;;;5.82;1.85;;;23.00;99.90;;;;;;5072589;28;20039;-78
2022/03/25 00:43:14;;;;;;;4.70;1.50;;;23.00;99.90;;;;;;5072719;28;20028;-77
2022/03/25 00:45:41;;;;;;;7.75;1.95;;;23.00;99.90;;;;;;5072626;28;20017;-77
2022/03/25 00:48:09;;;;;;;6.60;1.88;;;22.90;99.90;;;;;;5072628;28;20196;-77
2022/03/25 00:50:36;;;;;;;5.88;2.00;;;22.90;99.90;;;;;;5054658;28;20025;-75
2022/03/25 00:53:03;;;;;;;6.40;1.80;;;22.80;99.90;;;;;;5054435;28;20082;-76
2022/03/25 00:55:31;;;;;;;9.57;1.73;;;23.10;99.90;;;;;;5072443;28;20052;-76
2022/03/25 00:57:58;;;;;;;5.57;1.50;;;23.30;99.90;;;;;;5054273;28;20055;-76
2022/03/25 01:00:26;;;;;;;6.60;1.73;;;23.60;99.90;;;;;;5054245;28;20032;-76
2022/03/25 01:02:54;;;;;;;4.65;1.67;;;23.80;99.90;;;;;;5054258;28;20063;-76
2022/03/25 01:05:21;;;;;;;7.32;2.00;;;24.00;99.90;;;;;;5054172;28;20540;-76
2022/03/25 01:07:48;;;;;;;5.38;1.40;;;24.20;99.90;;;;;;5054183;28;20063;-75
2022/03/25 01:10:16;;;;;;;6.32;2.00;;;24.40;99.90;;;;;;5054022;28;20493;-76
2022/03/25 01:12:43;;;;;;;8.95;2.70;;;24.30;99.90;;;;;;5072196;28;20027;-78
2022/03/25 01:15:11;;;;;;;6.03;1.48;;;24.60;99.90;;;;;;5072341;28;20025;-81
2022/03/25 01:17:38;;;;;;;6.15;1.83;;;24.80;99.90;;;;;;5072321;28;20051;-78
2022/03/25 01:20:06;;;;;;;5.70;1.60;;;25.30;99.90;;;;;;5054203;28;20033;-78
2022/03/25 01:22:33;;;;;;;7.15;1.85;;;25.60;99.90;;;;;;5071874;28;20481;-79
2022/03/25 01:25:01;;;;;;;5.28;1.45;;;25.40;99.90;;;;;;5072021;28;20032;-77
2022/03/25 01:27:28;;;;;;;6.32;1.60;;;25.60;99.90;;;;;;5072089;28;20096;-78
2022/03/25 01:29:56;;;;;;;7.32;1.83;;;25.70;99.90;;;;;;5072098;28;20059;-77
2022/03/25 01:32:24;;;;;;;5.22;1.85;;;25.80;99.90;;;;;;5054024;28;20477;-77
2022/03/25 01:34:52;;;;;;;4.47;1.70;;;26.00;99.90;;;;;;5053943;28;20028;-78
2022/03/25 01:37:19;;;;;;;5.05;1.60;;;26.00;99.90;;;;;;5053934;28;20378;-78
2022/03/25 01:39:47;;;;;;;5.30;1.60;;;25.80;99.90;;;;;;5053988;28;20024;-78
2022/03/25 01:42:14;;;;;;;7.95;2.10;;;25.70;99.90;;;;;;5071866;28;20024;-77
2022/03/25 01:44:42;;;;;;;6.20;1.50;;;25.70;99.90;;;;;;5054034;28;20028;-78
2022/03/25 01:47:13;;;;;;;5.18;1.58;;;26.00;99.90;;;;;;5053879;28;20119;-77
2022/03/25 01:49:40;;;;;;;6.35;1.83;;;26.30;99.90;;;;;;5053808;28;20115;-78
2022/03/25 01:52:08;;;;;;;5.82;1.40;;;26.30;99.90;;;;;;5071905;28;20016;-77
2022/03/25 01:54:35;;;;;;;7.30;1.80;;;26.50;99.90;;;;;;5071649;28;20020;-78
2022/03/25 01:57:11;;;;;;;4.32;1.40;;;26.60;99.90;;;;;;5071802;28;20052;-79
2022/03/25 01:59:38;;;;;;;4.28;1.50;;;26.50;99.90;;;;;;5071707;28;20020;-80
2022/03/25 02:02:09;;;;;;;5.13;1.50;;;26.60;99.90;;;;;;5053821;28;20024;-79
2022/03/25 02:04:37;;;;;;;4.00;0.93;;;26.90;99.90;;;;;;5071657;28;20082;-80
2022/03/25 02:07:05;;;;;;;4.78;1.80;;;27.00;99.90;;;;;;5053747;28;20033;-80
2022/03/25 02:09:32;;;;;;;4.55;1.52;;;26.80;99.90;;;;;;5053347;28;20074;-79
2022/03/25 02:12:01;;;;;;;5.13;1.30;;;26.40;99.90;;;;;;5074816;28;20103;-79
2022/03/25 02:14:28;;;;;;;2.60;1.25;;;26.60;99.90;;;;;;5057261;28;20191;-78
2022/03/25 02:16:55;;;;;;;3.95;1.15;;;26.80;99.90;;;;;;5057323;28;20029;-80
2022/03/25 02:19:25;;;;;;;3.92;1.23;;;27.20;99.90;;;;;;5058228;28;20549;-81
2022/03/25 02:21:52;;;;;;;5.18;1.25;;;27.10;99.90;;;;;;5058011;28;20021;-80
2022/03/25 02:24:20;;;;;;;4.50;1.15;;;26.80;99.90;;;;;;5057212;28;20036;-81
2022/03/25 02:26:48;;;;;;;5.10;1.08;;;26.50;99.90;;;;;;5077032;28;20024;-81
2022/03/25 02:29:17;;;;;;;4.80;1.08;;;26.50;99.90;;;;;;5075006;28;20459;-79
2022/03/25 02:31:44;;;;;;;3.78;1.00;;;26.30;99.90;;;;;;5059125;28;20028;-80
2022/03/25 02:34:12;;;;;;;3.65;1.50;;;26.20;99.90;;;;;;5074957;28;20032;-83
2022/03/25 02:36:42;;;;;;;4.38;1.10;;;26.90;99.90;;;;;;5056911;28;20036;-81
2022/03/25 02:39:11;;;;;;;6.13;1.50;;;27.10;99.90;;;;;;5056828;28;20035;-82
2022/03/25 02:41:38;;;;;;;5.30;0.98;;;26.80;99.90;;;;;;5057202;28;20029;-80
2022/03/25 02:44:07;;;;;;;5.40;1.20;;;26.60;99.90;;;;;;5074869;28;20029;-80
2022/03/25 02:46:34;;;;;;;5.75;1.58;;;26.50;99.90;;;;;;5057643;28;20016;-80
2022/03/25 02:49:02;;;;;;;4.80;1.48;;;26.00;99.90;;;;;;5057484;28;20222;-80
2022/03/25 02:51:29;;;;;;;5.75;1.25;;;25.90;99.90;;;;;;5074773;28;20380;-80
2022/03/25 02:53:57;;;;;;;3.65;1.33;;;25.80;99.90;;;;;;5056754;28;20024;-81
2022/03/25 02:56:27;;;;;;;4.75;1.17;;;25.70;99.90;;;;;;5074635;28;20021;-80
2022/03/25 02:58:56;;;;;;;6.40;1.25;;;25.60;99.90;;;;;;5074678;28;20044;-81
2022/03/25 03:01:23;;;;;;;6.05;1.27;;;26.00;99.90;;;;;;5056411;28;20054;-82
2022/03/25 03:03:50;;;;;;;5.85;1.13;;;26.20;99.90;;;;;;5074583;28;20073;-81
2022/03/25 03:06:18;;;;;;;4.78;1.25;;;25.90;99.90;;;;;;5058050;28;20048;-82
2022/03/25 03:08:45;;;;;;;4.30;1.73;;;25.80;99.90;;;;;;5053150;28;20045;-82
2022/03/25 03:11:13;;;;;;;4.75;1.25;;;25.60;99.90;;;;;;5055652;28;20036;-82
2022/03/25 03:13:40;;;;;;;3.75;1.20;;;25.50;99.90;;;;;;5057515;28;20028;-82
2022/03/25 03:16:09;;;;;;;3.97;1.38;;;25.50;99.90;;;;;;5057658;28;20045;-82
2022/03/25 03:18:39;;;;;;;3.67;1.20;;;25.10;99.90;;;;;;5059801;28;20025;-82
2022/03/25 03:21:07;;;;;;;7.47;1.85;;;25.10;99.90;;;;;;5055745;28;20024;-82
2022/03/25 03:23:34;;;;;;;4.90;1.30;;;25.00;99.90;;;;;;5061925;28;20032;-83
2022/03/25 03:26:02;;;;;;;6.13;1.80;;;24.90;99.90;;;;;;5056627;28;20048;-83
2022/03/25 03:28:30;;;;;;;6.72;1.42;;;25.00;99.90;;;;;;5059305;28;20061;-83
2022/03/25 03:30:57;;;;;;;5.88;1.50;;;25.00;99.90;;;;;;5056563;28;20021;-83
2022/03/25 03:33:24;;;;;;;6.20;1.70;;;24.90;99.90;;;;;;5062284;28;20528;-83
2022/03/25 03:35:52;;;;;;;6.50;1.52;;;24.90;99.90;;;;;;5059311;28;20075;-83
2022/03/25 03:38:19;;;;;;;6.00;1.10;;;24.90;99.90;;;;;;5062790;28;20036;-81
2022/03/25 03:40:47;;;;;;;7.68;1.58;;;24.80;99.90;;;;;;5062136;28;20029;-81
2022/03/25 03:43:15;;;;;;;4.28;1.40;;;24.80;99.90;;;;;;5057150;28;20132;-81
2022/03/25 03:45:42;;;;;;;7.35;1.67;;;24.90;99.90;;;;;;5055155;28;20036;-82
2022/03/25 03:48:12;;;;;;;5.70;1.33;;;24.70;99.90;;;;;;5053655;28;20124;-81
2022/03/25 03:50:41;;;;;;;3.95;1.33;;;24.80;99.90;;;;;;5054693;28;20017;-82
2022/03/25 03:53:08;;;;;;;6.20;1.60;;;24.80;99.90;;;;;;5036996;28;20120;-82
2022/03/25 03:55:35;;;;;;;6.82;1.50;;;24.60;99.90;;;;;;5053995;28;20025;-81
2022/03/25 03:58:03;;;;;;;6.20;1.60;;;24.70;99.90;;;;;;5055758;28;20048;-81
2022/03/25 04:00:32;;;;;;;7.22;1.77;;;24.70;99.90;;;;;;5055963;28;20052;-78
2022/03/25 04:02:59;;;;;;;6.80;1.30;;;24.70;99.90;;;;;;5055236;28;20029;-80
2022/03/25 04:05:27;;;;;;;5.45;1.50;;;24.60;99.90;;;;;;5056375;28;20496;-81
2022/03/25 04:07:54;;;;;;;6.32;1.67;;;24.50;99.90;;;;;;5055483;28;20021;-80
2022/03/25 04:10:21;;;;;;;8.00;1.58;;;24.40;99.90;;;;;;5074224;28;20045;-80
2022/03/25 04:12:49;;;;;;;4.50;1.60;;;24.50;99.90;;;;;;5074763;28;20153;-80
2022/03/25 04:15:17;;;;;;;8.95;2.25;;;24.20;99.90;;;;;;5057083;28;20030;-80
2022/03/25 04:17:45;;;;;;;7.15;1.63;;;24.00;99.90;;;;;;5075934;28;20020;-80
2022/03/25 04:20:14;;;;;;;6.55;2.10;;;23.90;99.90;;;;;;5057390;28;20116;-81
2022/03/25 04:22:43;;;;;;;5.97;1.88;;;23.80;99.90;;;;;;5040107;28;20128;-79
2022/03/25 04:25:10;;;;;;;7.25;2.15;;;23.60;99.90;;;;;;5055797;28;20032;-79
2022/03/25 04:27:49;;;;;;;6.20;1.77;;;23.60;99.90;;;;;;5055054;28;20031;-79
2022/03/25 04:30:25;;;;;;;7.70;2.20;;;23.50;99.90;;;;;;5072898;28;20020;-79
2022/03/25 04:32:53;;;;;;;4.88;1.70;;;23.50;99.90;;;;;;5054421;28;20028;-78
2022/03/25 04:35:22;;;;;;;7.53;1.98;;;23.40;99.90;;;;;;5054868;28;20397;-79
2022/03/25 04:37:50;;;;;;;8.13;2.20;;;23.40;99.90;;;;;;5054790;28;20074;-79
2022/03/25 04:40:19;;;;;;;8.65;2.22;;;23.30;99.90;;;;;;5054739;28;20036;-79
2022/03/25 04:42:47;;;;;;;7.15;1.67;;;23.40;99.90;;;;;;5073148;28;20017;-79
2022/03/25 04:45:16;;;;;;;8.00;2.15;;;23.50;99.90;;;;;;5054905;28;20052;-79
2022/03/25 04:47:44;;;;;;;6.97;2.03;;;23.60;99.90;;;;;;5038155;28;20083;-78
2022/03/25 04:50:12;;;;;;;7.25;1.83;;;23.70;99.90;;;;;;5072581;28;20095;-80
2022/03/25 04:52:40;;;;;;;7.40;1.98;;;23.80;99.90;;;;;;5072404;28;20021;-79
2022/03/25 04:55:07;;;;;;;7.53;2.00;;;23.70;99.90;;;;;;5072547;28;20419;-79
2022/03/25 04:57:35;;;;;;;5.63;1.77;;;23.80;99.90;;;;;;5054427;28;20157;-79
2022/03/25 05:00:03;;;;;;;8.07;1.98;;;23.80;99.90;;;;;;5054530;28;20017;-79
2022/03/25 05:02:30;;;;;;;5.00;1.90;;;23.80;99.90;;;;;;5072236;28;20024;-79
2022/03/25 05:04:58;;;;;;;5.95;1.80;;;23.90;99.90;;;;;;5072324;28;20473;-79
2022/03/25 05:07:26;;;;;;;6.00;2.53;;;23.80;99.90;;;;;;5054377;28;20033;-77
2022/03/25 05:09:53;;;;;;;7.80;2.20;;;23.50;99.90;;;;;;5054165;28;20044;-77
2022/03/25 05:12:21;;;;;;;7.88;2.05;;;23.40;99.90;;;;;;5072192;28;20128;-78
2022/03/25 05:14:48;;;;;;;6.32;1.90;;;23.10;99.90;;;;;;5054213;28;20032;-77
2022/03/25 05:17:15;;;;;;;4.85;1.80;;;22.80;99.90;;;;;;5072289;28;20436;-78
2022/03/25 05:19:43;;;;;;;6.20;1.70;;;22.50;99.90;;;;;;5054236;28;20133;-76
2022/03/25 05:22:10;;;;;;;6.00;1.90;;;22.50;99.90;;;;;;5054045;28;20024;-77
2022/03/25 05:24:38;;;;;;;4.70;1.83;;;22.40;99.90;;;;;;5071975;28;20440;-76
2022/03/25 05:27:05;;;;;;;7.13;2.20;;;22.30;99.90;;;;;;5072115;28;20030;-77
2022/03/25 05:29:33;;;;;;;7.40;1.92;;;22.10;99.90;;;;;;5054076;28;20021;-77
2022/03/25 05:32:00;;;;;;;6.90;2.13;;;21.70;99.90;;;;;;5054061;28;20020;-77
2022/03/25 05:34:27;;;;;;;6.47;1.70;;;21.50;99.90;;;;;;5054008;28;20349;-77
2022/03/25 05:36:55;;;;;;;7.72;2.28;;;21.40;99.90;;;;;;5072044;28;20024;-77
2022/03/25 05:39:22;;;;;;;5.00;1.77;;;21.30;99.90;;;;;;5053922;28;20028;-77
2022/03/25 05:41:49;;;;;;;4.47;1.45;;;21.30;99.90;;;;;;5053941;28;20035;-77
2022/03/25 05:44:18;;;;;;;6.20;2.10;;;21.30;99.90;;;;;;5053904;28;20079;-77
2022/03/25 05:46:45;;;;;;;5.82;1.75;;;21.30;99.90;;;;;;5075055;28;20020;-77
2022/03/25 05:49:13;;;;;;;6.25;2.13;;;21.20;99.90;;;;;;5057815;28;20020;-77
2022/03/25 05:51:40;;;;;;;5.55;2.10;;;21.20;99.90;;;;;;5057889;28;20111;-77
2022/03/25 05:54:07;;;;;;;9.32;2.63;;;21.10;99.90;;;;;;5057948;28;20112;-77
2022/03/25 05:56:35;;;;;;;5.25;2.20;;;21.00;99.90;;;;;;5057936;28;20025;-77
2022/03/25 05:59:02;;;;;;;5.80;2.47;;;21.00;99.90;;;;;;5075689;28;20031;-77
2022/03/25 06:01:29;;;;;;;6.93;2.40;;;20.90;99.90;;;;;;5075732;28;20020;-77
2022/03/25 06:03:57;;;;;;;6.15;2.08;;;20.90;99.90;;;;;;5057556;28;20028;-77
2022/03/25 06:06:24;;;;;;;7.70;2.42;;;21.00;99.90;;;;;;5057748;28;20361;-77
2022/03/25 06:08:52;;;;;;;5.88;2.08;;;20.90;99.90;;;;;;5057302;28;20049;-76
2022/03/25 06:11:19;;;;;;;5.93;3.22;;;20.90;99.90;;;;;;5038936;28;20029;-77
2022/03/25 06:13:47;;;;;;;9.88;3.55;;;20.90;99.90;;;;;;5057431;28;20059;-77
2022/03/25 06:16:14;;;;;;;9.50;3.42;;;21.00;99.90;;;;;;5056547;28;20099;-76
2022/03/25 06:18:41;;;;;;;9.77;3.97;;;21.00;99.90;;;;;;5057557;28;20027;-77
2022/03/25 06:21:09;;;;;;;9.55;4.00;;;21.00;99.90;;;;;;5055688;28;20033;-77
2022/03/25 06:23:36;;;;;;;11.05;3.85;;;21.00;99.90;;;;;;5055647;28;20021;-77
2022/03/25 06:26:05;;;;;;;10.88;3.55;;;21.10;99.90;;;;;;5057067;28;20032;-77
2022/03/25 06:28:32;;;;;;;7.68;3.33;;;21.00;99.90;;;;;;5057102;28;20431;-77
2022/03/25 06:31:00;;;;;;;6.20;2.95;;;21.00;99.90;;;;;;5057399;28;20029;-77
2022/03/25 06:33:27;;;;;;;8.98;3.47;;;21.10;99.90;;;;;;5055763;28;20059;-77
2022/03/25 06:35:55;;;;;;;6.63;2.97;;;21.10;99.90;;;;;;5055708;28;20058;-77
2022/03/25 06:38:23;;;;;;;8.27;3.40;;;21.00;99.90;;;;;;5055890;28;20025;-77
2022/03/25 06:40:50;;;;;;;8.10;3.03;;;20.90;99.90;;;;;;5056187;28;20151;-77
2022/03/25 06:43:18;;;;;;;5.47;2.20;;;20.90;99.90;;;;;;5057232;28;20100;-75
2022/03/25 06:45:45;;;;;;;9.18;2.70;;;20.80;99.90;;;;;;5056584;28;20432;-75
2022/03/25 06:48:13;;;;;;;9.60;2.72;;;20.80;99.90;;;;;;5055171;28;20032;-77
2022/03/25 06:50:41;;;;;;;5.30;3.05;;;20.70;99.90;;;;;;5054654;28;20060;-76
2022/03/25 06:53:09;;;;;;;8.30;3.38;;;20.70;99.90;;;;;;5055049;28;20056;-75
2022/03/25 06:55:37;;;;;;;8.65;3.10;;;20.70;99.90;;;;;;5055169;28;20028;-75
2022/03/25 06:58:04;;;;;;;10.25;3.03;;;20.70;99.90;;;;;;5056344;28;20025;-75
2022/03/25 07:00:32;;;;;;;9.80;3.17;;;20.70;99.90;;;;;;5054976;28;20025;-75
2022/03/25 07:03:00;;;;;;;12.48;3.80;;;20.70;99.90;;;;;;5056023;28;20394;-76
2022/03/25 07:05:31;;;;;;;10.60;3.42;;;20.70;99.90;;;;;;5054674;28;20021;-75
2022/03/25 07:08:00;;;;;;;6.32;2.53;;;20.80;99.90;;;;;;5056234;28;20542;-75
2022/03/25 07:10:27;;;;;;;11.00;3.13;;;20.80;99.90;;;;;;5058071;28;20032;-76
2022/03/25 07:12:55;;;;;;;8.77;3.17;;;20.80;99.90;;;;;;5076404;28;20028;-75
2022/03/25 07:15:24;;;;;;;7.78;3.03;;;20.80;99.90;;;;;;5075836;28;20495;-75
2022/03/25 07:17:52;;;;;;;4.82;3.03;;;20.80;99.90;;;;;;5075725;28;20389;-75
2022/03/25 07:20:21;;;;;;;7.55;3.30;;;20.70;99.90;;;;;;5057527;28;20028;-74
2022/03/25 07:22:51;;;;;;;6.95;2.85;;;20.70;99.90;;;;;;5075405;28;20024;-74
2022/03/25 07:25:19;;;;;;;4.75;2.50;;;20.70;99.90;;;;;;5075264;28;20027;-75
2022/03/25 07:27:48;;;;;;;9.93;3.20;;;20.70;99.90;;;;;;5057145;28;20050;-75
2022/03/25 07:30:17;;;;;;;6.60;2.65;;;20.60;99.90;;;;;;5075515;28;20075;-75
2022/03/25 07:32:45;;;;;;;9.20;2.95;;;20.60;99.90;;;;;;5057347;28;20017;-75
2022/03/25 07:35:13;;;;;;;7.63;3.00;;;20.60;99.90;;;;;;5057060;28;20020;-75
2022/03/25 07:37:41;;;;;;;8.65;3.30;;;20.50;99.90;;;;;;5057214;28;20107;-75
2022/03/25 07:40:10;;;;;;;9.13;3.30;;;20.50;99.90;;;;;;5075438;28;20048;-75
2022/03/25 07:42:40;;;;;;;8.23;2.80;;;20.50;99.90;;;;;;5076234;28;20481;-76
2022/03/25 07:45:13;;;;;;;8.65;3.10;;;20.40;99.90;;;;;;5075125;28;20085;-75
2022/03/25 07:47:58;;;;;;;8.77;2.92;;;20.40;99.90;;;;;;5075170;28;20046;-75
2022/03/25 07:50:26;;;;;;;8.60;2.95;;;20.30;99.90;;;;;;5075018;28;20108;-75
2022/03/25 07:52:54;;;;;;;6.22;2.70;;;20.30;99.90;;;;;;5056737;28;20028;-75
2022/03/25 07:55:22;;;;;;;5.47;2.50;;;20.20;99.90;;;;;;5056955;28;20119;-75
2022/03/25 07:57:51;;;;;;;6.80;3.20;;;20.20;99.90;;;;;;5056909;28;20028;-75
2022/03/25 08:00:19;;;;;;;3.95;2.58;;;20.20;99.90;;;;;;5057477;28;20108;-76
2022/03/25 08:02:55;;;;;;;11.15;9.57;;;20.20;99.90;;;;;;5074701;28;20029;-76
2022/03/25 08:05:23;;;;;;;7.40;3.83;;;20.10;99.90;;;;;;5074777;28;20028;-76
2022/03/25 08:07:55;;;;;;;8.77;6.90;;;20.10;99.90;;;;;;5057011;28;20333;-76
2022/03/25 08:10:28;;;;;;;8.90;4.10;;;20.10;99.90;;;;;;5056773;28;20101;-76
2022/03/25 08:12:56;;;;;;;11.13;3.50;;;20.10;99.90;;;;;;5057531;28;20024;-75
2022/03/25 08:18:45;;;;;;;8.68;2.95;;;20.00;99.90;;;;;;5074770;28;20442;-77
2022/03/25 08:21:13;;;;;;;7.05;3.15;;;19.90;99.90;;;;;;5056862;28;20029;-75
2022/03/25 08:29:11;;;;;;;7.20;2.35;;;19.90;99.90;;;;;;5075592;28;20063;-75
2022/03/25 08:31:38;;;;;;;5.63;2.30;;;20.00;99.90;;;;;;5075178;28;20435;-74
2022/03/25 08:34:13;;;;;;;5.40;2.50;;;20.00;99.90;;;;;;5056045;28;20029;-75
2022/03/25 08:36:41;;;;;;;6.40;2.70;;;20.00;99.90;;;;;;5056210;28;20024;-75
2022/03/25 08:39:09;;;;;;;5.57;2.83;;;20.00;99.90;;;;;;5056326;28;20089;-75
2022/03/25 08:41:36;;;;;;;3.28;2.25;;;20.00;99.90;;;;;;5074896;28;20473;-76
2022/03/25 08:44:04;;;;;;;5.53;2.67;;;19.90;99.90;;;;;;5074651;28;20056;-74
2022/03/25 08:46:33;;;;;;;7.20;2.60;;;19.90;99.90;;;;;;5064539;28;20020;-76
2022/03/25 08:49:02;;;;;;;5.07;2.28;;;19.90;99.90;;;;;;5074396;28;20017;-74
2022/03/25 08:51:29;;;;;;;6.47;2.30;;;19.80;99.90;;;;;;5074475;28;20037;-75
2022/03/25 08:53:58;;;;;;;5.28;2.97;;;19.80;99.90;;;;;;5074952;28;20024;-75
2022/03/25 08:56:27;;;;;;;5.63;2.72;;;19.80;99.90;;;;;;5074740;28;20047;-76
2022/03/25 08:58:58;;;;;;;4.97;2.40;;;19.80;99.90;;;;;;5057188;28;20027;-75
2022/03/25 09:01:26;;;;;;;6.68;3.28;;;19.80;99.90;;;;;;5074555;28;20069;-75
2022/03/25 09:03:53;;;;;;;5.78;2.33;;;19.80;99.90;;;;;;5074142;28;20100;-76
2022/03/25 09:06:24;;;;;;;10.25;3.05;;;19.80;99.90;;;;;;5060314;28;20021;-76
2022/03/25 09:08:58;;;;;;;6.75;2.42;;;19.80;99.90;;;;;;5059452;28;20064;-75
2022/03/25 09:11:25;;;;;;;5.07;2.13;;;19.80;99.90;;;;;;5058274;28;20116;-75
2022/03/25 09:13:54;;;;;;;7.68;2.55;;;19.90;99.90;;;;;;5074705;28;20078;-76
2022/03/25 09:16:21;;;;;;;6.50;2.20;;;19.90;99.90;;;;;;5056154;28;20419;-76
2022/03/25 09:18:49;;;;;;;5.55;1.90;;;19.90;99.90;;;;;;5074881;28;20053;-75
2022/03/25 09:21:16;;;;;;;5.35;2.50;;;19.90;99.90;;;;;;5055683;28;20119;-76
2022/03/25 09:23:44;;;;;;;5.88;2.15;;;19.90;99.90;;;;;;5073923;28;20024;-76
2022/03/25 09:26:11;;;;;;;5.82;1.85;;;19.90;99.90;;;;;;5056095;28;20059;-76
2022/03/25 09:28:39;;;;;;;7.47;2.15;;;19.90;99.90;;;;;;5074892;28;20020;-76
2022/03/25 09:31:06;;;;;;;4.15;2.05;;;20.00;99.90;;;;;;5074286;28;20023;-75
2022/03/25 09:33:33;;;;;;;6.68;2.30;;;20.00;99.90;;;;;;5074020;28;20504;-75
2022/03/25 09:36:01;;;;;;;8.63;2.33;;;20.00;99.90;;;;;;5056287;28;20102;-76
2022/03/25 09:38:28;;;;;;;4.88;1.85;;;20.10;99.90;;;;;;5074110;28;20036;-75
2022/03/25 09:40:58;;;;;;;5.10;2.15;;;20.10;99.90;;;;;;5073916;28;20025;-75
2022/03/25 09:43:26;;;;;;;6.53;2.10;;;20.10;99.90;;;;;;5057068;28;20035;-75
2022/03/25 09:45:54;;;;;;;7.68;2.03;;;20.20;99.90;;;;;;5056100;28;20032;-75
2022/03/25 09:48:21;;;;;;;5.65;1.70;;;20.20;99.90;;;;;;5073931;28;20073;-75
2022/03/25 09:50:49;;;;;;;6.03;1.73;;;20.20;99.90;;;;;;5057772;28;20031;-75
2022/03/25 09:53:16;;;;;;;4.70;1.70;;;20.30;99.90;;;;;;5073841;28;20025;-75
2022/03/25 09:55:46;;;;;;;7.88;2.00;;;20.20;99.90;;;;;;5074164;28;20484;-76
2022/03/25 09:58:18;;;;;;;6.30;1.92;;;20.30;99.90;;;;;;5073822;28;20496;-75
2022/03/25 10:00:53;;;;;;;5.57;1.77;;;20.30;99.90;;;;;;5054950;28;20615;-75
2022/03/25 10:03:37;;;;;;;6.97;2.10;;;20.20;99.90;;;;;;5073514;28;20029;-75
2022/03/25 10:06:12;;;;;;;6.03;1.92;;;20.20;99.90;;;;;;5075320;28;20500;-76
2022/03/25 10:08:40;;;;;;;4.72;2.10;;;20.20;99.90;;;;;;5073791;28;20547;-76
2022/03/25 10:11:24;;;;;;;7.30;2.10;;;20.20;99.90;;;;;;5055806;28;20028;-76
2022/03/25 10:14:18;;;;;;;4.32;1.58;;;20.20;99.90;;;;;;5073918;28;20005;-76
2022/03/25 10:16:48;;;;;;;8.77;1.67;;;20.20;99.90;;;;;;5073650;28;20031;-75
2022/03/25 10:19:21;;;;;;;5.00;1.92;;;20.30;99.90;;;;;;5073437;28;20496;-76
2022/03/25 10:22:02;;;;;;;8.20;2.03;;;20.40;99.90;;;;;;5073327;28;20071;-75
2022/03/25 10:24:52;;;;;;;5.57;1.73;;;20.40;99.90;;;;;;5055584;28;20033;-76
2022/03/25 10:27:29;;;;;;;5.85;1.83;;;20.50;99.90;;;;;;5073943;28;20503;-75
2022/03/25 10:29:57;;;;;;;5.95;1.75;;;20.50;99.90;;;;;;5073666;28;20413;-75
2022/03/25 10:32:26;;;;;;;6.32;1.58;;;20.50;99.90;;;;;;5058204;28;20043;-75
2022/03/25 10:35:10;;;;;;;9.73;1.85;;;20.40;99.90;;;;;;5059623;28;20074;-75
2022/03/25 10:37:55;;;;;;;6.28;1.83;;;20.40;99.90;;;;;;5059168;28;20484;-76
2022/03/25 10:40:22;;;;;;;6.35;1.73;;;20.30;99.90;;;;;;5076967;28;20025;-76
2022/03/25 10:43:06;;;;;;;5.90;1.80;;;20.30;99.90;;;;;;5079023;28;20039;-76
2022/03/25 10:45:39;;;;;;;6.38;2.00;;;20.30;99.90;;;;;;5077133;28;20016;-75
2022/03/25 10:48:18;;;;;;;5.53;1.50;;;20.30;99.90;;;;;;5076758;28;20516;-76
2022/03/25 10:51:01;;;;;;;6.70;1.30;;;20.30;99.90;;;;;;5076886;28;20020;-75
2022/03/25 10:53:34;;;;;;;8.82;1.60;;;20.20;99.90;;;;;;5077137;28;20028;-75
2022/03/25 10:56:06;;;;;;;6.32;1.55;;;20.20;99.90;;;;;;5059414;28;20508;-75
2022/03/25 10:58:35;;;;;;;5.90;1.42;;;20.30;99.90;;;;;;5076656;28;20032;-75
2022/03/25 11:01:05;;;;;;;8.05;1.65;;;20.30;99.90;;;;;;5076308;28;20032;-75
2022/03/25 11:03:33;;;;;;;5.82;1.58;;;20.30;99.90;;;;;;5076739;28;20024;-76
2022/03/25 11:06:01;;;;;;;5.65;1.20;;;20.30;99.90;;;;;;5076848;28;20381;-76
2022/03/25 11:08:30;;;;;;;5.13;1.58;;;20.40;99.90;;;;;;5076063;28;20098;-76
2022/03/25 11:10:58;;;;;;;5.65;1.48;;;20.50;99.90;;;;;;5076405;28;20028;-76
2022/03/25 11:13:27;;;;;;;5.53;1.17;;;20.50;99.90;;;;;;5058499;28;20035;-76
2022/03/25 11:15:55;;;;;;;7.32;1.75;;;20.50;99.90;;;;;;5058096;28;20025;-76
2022/03/25 11:18:23;;;;;;;7.65;1.55;;;20.50;99.90;;;;;;5076606;28;20090;-76
2022/03/25 11:20:53;;;;;;;3.67;1.15;;;20.50;99.90;;;;;;5058367;28;20036;-75
2022/03/25 11:23:32;;;;;;;7.57;2.50;;;20.60;99.90;;;;;;5075697;28;20020;-76
2022/03/25 11:26:03;;;;;;;6.25;1.70;;;20.60;99.90;;;;;;5057943;28;20056;-76
2022/03/25 11:28:33;;;;;;;6.63;1.85;;;20.60;99.90;;;;;;5058378;28;20030;-76
2022/03/25 11:31:04;;;;;;;7.90;1.90;;;20.60;99.90;;;;;;5076734;28;20017;-76
2022/03/25 11:33:31;;;;;;;5.22;1.15;;;20.60;99.90;;;;;;5076052;28;20024;-75
2022/03/25 11:36:19;;;;;;;6.75;1.60;;;20.60;99.90;;;;;;5075810;28;20496;-75
2022/03/25 11:38:47;;;;;;;5.57;1.48;;;20.60;99.90;;;;;;5057681;28;20498;-75
2022/03/25 11:41:28;;;;;;;5.03;1.40;;;20.60;99.90;;;;;;5058426;28;20473;-75
2022/03/25 11:44:27;;;;;;;5.82;1.63;;;20.60;99.90;;;;;;5056981;28;20374;-76
2022/03/25 11:47:01;;;;;;;6.30;1.80;;;20.60;99.90;;;;;;5036881;28;20024;-76
2022/03/25 11:49:33;;;;;;;10.75;2.88;;;20.60;99.90;;;;;;5061338;28;20024;-78
2022/03/25 11:52:29;;;;;;;6.30;1.60;;;20.40;99.90;;;;;;5058198;28;20136;-77
2022/03/25 11:54:59;;;;;;;6.68;1.52;;;20.00;99.90;;;;;;5076261;28;20025;-78
2022/03/25 11:57:33;;;;;;;6.03;1.27;;;19.70;99.90;;;;;;5057748;28;20054;-78
2022/03/25 12:00:02;;;;;;;6.72;1.30;;;19.30;99.90;;;;;;5075900;28;20345;-77
2022/03/25 12:02:36;;;;;;;4.45;1.42;;;19.10;99.90;;;;;;5075740;28;20092;-77
2022/03/25 12:05:25;;;;;;;8.60;2.00;;;19.00;99.90;;;;;;5057695;28;20025;-76
2022/03/25 12:08:31;;;;;;;9.13;2.45;;;18.90;99.90;;;;;;5075295;28;20082;-76
2022/03/25 12:11:00;;;;;;;6.72;1.90;;;18.90;99.90;;;;;;5075739;28;20524;-76
2022/03/25 12:13:56;;;;;;;8.80;2.03;;;18.90;99.90;;;;;;5075294;28;20100;-76
2022/03/25 12:17:01;;;;;;;9.48;1.98;;;18.90;99.90;;;;;;5057051;28;20077;-76
2022/03/25 12:19:29;;;;;;;10.10;2.70;;;18.90;99.90;;;;;;5075491;28;20162;-77
2022/03/25 12:22:18;;;;;;;7.13;1.88;;;18.90;99.90;;;;;;5074997;28;20370;-77
2022/03/25 12:24:47;;;;;;;7.75;1.67;;;18.80;99.90;;;;;;5056991;28;20487;-76
2022/03/25 12:27:14;;;;;;;6.97;2.13;;;18.80;99.90;;;;;;5057319;28;20114;-76
2022/03/25 12:29:53;;;;;;;9.40;2.55;;;18.80;99.90;;;;;;5056659;28;20068;-76
2022/03/25 12:32:23;;;;;;;8.18;1.85;;;18.80;99.90;;;;;;5074563;28;20085;-76
2022/03/25 12:35:08;;;;;;;4.07;1.75;;;18.80;99.90;;;;;;5057010;28;20030;-75
2022/03/25 12:37:53;;;;;;;5.95;1.85;;;18.80;99.90;;;;;;5074675;28;20508;-76
2022/03/25 12:40:29;;;;;;;7.53;1.55;;;18.80;99.90;;;;;;5074568;28;20071;-76
2022/03/25 12:43:03;;;;;;;5.80;1.55;;;18.80;99.90;;;;;;5056870;28;20085;-76
2022/03/25 12:45:34;;;;;;;8.88;1.98;;;18.80;99.90;;;;;;5074526;28;20420;-76
2022/03/25 12:48:15;;;;;;;7.28;1.65;;;18.80;99.90;;;;;;5074235;28;20013;-78
2022/03/25 12:50:55;;;;;;;4.85;1.42;;;18.70;99.90;;;;;;5074530;28;20016;-75
2022/03/25 12:53:28;;;;;;;3.63;0.88;;;18.50;99.90;;;;;;5074564;28;20028;-76
2022/03/25 12:55:57;;;;;;;9.57;1.27;;;18.50;99.90;;;;;;5074794;28;20025;-76
2022/03/25 12:58:25;;;;;;;6.65;1.48;;;18.50;99.90;;;;;;5074552;28;20083;-76
2022/03/25 13:00:56;;;;;;;7.25;1.30;;;18.50;99.90;;;;;;5056247;28;20028;-76
2022/03/25 13:03:31;;;;;;;5.55;1.30;;;18.60;99.90;;;;;;5073795;28;20166;-76
2022/03/25 13:05:59;;;;;;;6.95;1.40;;;18.70;99.90;;;;;;5057375;28;20032;-75
2022/03/25 13:08:26;;;;;;;7.82;1.63;;;18.70;99.90;;;;;;5073915;28;20048;-76